sensor_id;sensor_type;location;lat;lon;timestamp;temperature;humidity
22491;DHT22;11412;50.802;4.350;2023-03-31T00:01:35;13.40;99.90
22491;DHT22;11412;50.802;4.350;2023-03-31T00:04:01;13.50;99.90
22491;DHT22;11412;50.802;4.350;2023-03-31T00:06:35;13.30;99.90
22491;DHT22;11412;50.802;4.350;2023-03-31T00:09:04;13.30;99.90
22491;DHT22;11412;50.802;4.350;2023-03-31T00:11:29;13.40;99.90
22491;DHT22;11412;50.802;4.350;2023-03-31T00:13:55;13.20;99.90
22491;DHT22;11412;50.802;4.350;2023-03-31T00:16:21;13.30;99.90
22491;DHT22;11412;50.802;4.350;2023-03-31T00:18:47;13.20;99.90
22491;DHT22;11412;50.802;4.350;2023-03-31T00:21:24;13.30;99.90
22491;DHT22;11412;50.802;4.350;2023-03-31T00:23:57;13.30;99.90
22491;DHT22;11412;50.802;4.350;2023-03-31T00:26:24;13.20;99.90
22491;DHT22;11412;50.802;4.350;2023-03-31T00:28:51;13.10;99.90
22491;DHT22;11412;50.802;4.350;2023-03-31T00:31:18;13.10;99.90
22491;DHT22;11412;50.802;4.350;2023-03-31T00:33:44;13.10;99.90
22491;DHT22;11412;50.802;4.350;2023-03-31T00:36:09;13.00;99.90
22491;DHT22;11412;50.802;4.350;2023-03-31T00:38:35;13.00;99.90
22491;DHT22;11412;50.802;4.350;2023-03-31T00:41:02;13.10;99.90
22491;DHT22;11412;50.802;4.350;2023-03-31T00:43:36;13.10;99.90
22491;DHT22;11412;50.802;4.350;2023-03-31T00:46:06;13.00;99.90
22491;DHT22;11412;50.802;4.350;2023-03-31T00:48:38;13.00;99.90
22491;DHT22;11412;50.802;4.350;2023-03-31T00:51:06;12.80;99.90
22491;DHT22;11412;50.802;4.350;2023-03-31T00:53:33;12.90;99.90
22491;DHT22;11412;50.802;4.350;2023-03-31T00:56:12;12.60;99.90
22491;DHT22;11412;50.802;4.350;2023-03-31T00:58:40;12.50;99.90
22491;DHT22;11412;50.802;4.350;2023-03-31T01:01:15;12.70;99.90
22491;DHT22;11412;50.802;4.350;2023-03-31T01:03:42;12.70;99.90
22491;DHT22;11412;50.802;4.350;2023-03-31T01:06:12;12.60;99.90
22491;DHT22;11412;50.802;4.350;2023-03-31T01:08:40;12.60;99.90
22491;DHT22;11412;50.802;4.350;2023-03-31T01:11:09;12.70;99.90
22491;DHT22;11412;50.802;4.350;2023-03-31T01:13:37;12.80;99.90
22491;DHT22;11412;50.802;4.350;2023-03-31T01:16:04;12.60;99.90
22491;DHT22;11412;50.802;4.350;2023-03-31T01:18:30;12.60;99.90
22491;DHT22;11412;50.802;4.350;2023-03-31T01:32:28;12.60;99.90
22491;DHT22;11412;50.802;4.350;2023-03-31T01:35:01;12.70;99.90
22491;DHT22;11412;50.802;4.350;2023-03-31T01:46:01;12.30;99.90
22491;DHT22;11412;50.802;4.350;2023-03-31T01:55:05;12.40;99.90
22491;DHT22;11412;50.802;4.350;2023-03-31T01:57:46;12.30;99.90
22491;DHT22;11412;50.802;4.350;2023-03-31T02:00:23;12.30;99.90
22491;DHT22;11412;50.802;4.350;2023-03-31T02:02:58;12.30;99.90
22491;DHT22;11412;50.802;4.350;2023-03-31T02:05:31;12.30;99.90
22491;DHT22;11412;50.802;4.350;2023-03-31T02:08:05;12.20;99.90
22491;DHT22;11412;50.802;4.350;2023-03-31T02:10:34;12.10;99.90
22491;DHT22;11412;50.802;4.350;2023-03-31T02:13:01;12.20;99.90
22491;DHT22;11412;50.802;4.350;2023-03-31T02:15:32;12.10;99.90
22491;DHT22;11412;50.802;4.350;2023-03-31T02:18:02;12.10;99.90
22491;DHT22;11412;50.802;4.350;2023-03-31T02:20:31;12.10;99.90
22491;DHT22;11412;50.802;4.350;2023-03-31T02:22:58;12.00;99.90
22491;DHT22;11412;50.802;4.350;2023-03-31T02:25:30;12.00;99.90
22491;DHT22;11412;50.802;4.350;2023-03-31T02:28:03;12.00;99.90
22491;DHT22;11412;50.802;4.350;2023-03-31T02:30:41;12.10;99.90
22491;DHT22;11412;50.802;4.350;2023-03-31T02:33:10;12.10;99.90
22491;DHT22;11412;50.802;4.350;2023-03-31T02:35:35;12.00;99.90
22491;DHT22;11412;50.802;4.350;2023-03-31T02:38:01;12.10;99.90
22491;DHT22;11412;50.802;4.350;2023-03-31T02:40:27;12.00;99.90
22491;DHT22;11412;50.802;4.350;2023-03-31T02:42:55;12.00;99.90
22491;DHT22;11412;50.802;4.350;2023-03-31T02:45:40;12.00;99.90
22491;DHT22;11412;50.802;4.350;2023-03-31T02:48:13;11.90;99.90
22491;DHT22;11412;50.802;4.350;2023-03-31T03:10:47;11.90;99.90
22491;DHT22;11412;50.802;4.350;2023-03-31T03:13:18;12.10;99.90
22491;DHT22;11412;50.802;4.350;2023-03-31T03:15:57;12.20;99.90
22491;DHT22;11412;50.802;4.350;2023-03-31T03:18:25;12.20;99.90
22491;DHT22;11412;50.802;4.350;2023-03-31T03:20:50;12.10;99.90
22491;DHT22;11412;50.802;4.350;2023-03-31T03:23:17;12.00;99.90
22491;DHT22;11412;50.802;4.350;2023-03-31T03:25:43;12.10;99.90
22491;DHT22;11412;50.802;4.350;2023-03-31T03:28:10;12.10;99.90
22491;DHT22;11412;50.802;4.350;2023-03-31T03:30:36;12.20;99.90
22491;DHT22;11412;50.802;4.350;2023-03-31T03:33:02;12.00;99.90
22491;DHT22;11412;50.802;4.350;2023-03-31T03:35:30;12.10;99.90
22491;DHT22;11412;50.802;4.350;2023-03-31T03:37:56;12.10;99.90
22491;DHT22;11412;50.802;4.350;2023-03-31T03:40:22;12.10;99.90
22491;DHT22;11412;50.802;4.350;2023-03-31T03:42:47;11.90;99.90
22491;DHT22;11412;50.802;4.350;2023-03-31T03:45:13;11.80;99.90
22491;DHT22;11412;50.802;4.350;2023-03-31T03:47:38;11.80;99.90
22491;DHT22;11412;50.802;4.350;2023-03-31T03:50:05;11.80;99.90
22491;DHT22;11412;50.802;4.350;2023-03-31T03:52:31;11.70;99.90
22491;DHT22;11412;50.802;4.350;2023-03-31T03:54:56;11.50;99.90
22491;DHT22;11412;50.802;4.350;2023-03-31T03:57:22;11.40;99.90
22491;DHT22;11412;50.802;4.350;2023-03-31T03:59:48;11.50;99.90
22491;DHT22;11412;50.802;4.350;2023-03-31T04:02:13;11.70;99.90
22491;DHT22;11412;50.802;4.350;2023-03-31T04:04:39;11.60;99.90
22491;DHT22;11412;50.802;4.350;2023-03-31T04:07:04;11.40;99.90
22491;DHT22;11412;50.802;4.350;2023-03-31T04:09:30;11.20;99.90
22491;DHT22;11412;50.802;4.350;2023-03-31T04:11:56;11.20;99.90
22491;DHT22;11412;50.802;4.350;2023-03-31T04:14:21;11.20;99.90
22491;DHT22;11412;50.802;4.350;2023-03-31T04:16:47;11.50;99.90
22491;DHT22;11412;50.802;4.350;2023-03-31T04:19:13;11.30;99.90
22491;DHT22;11412;50.802;4.350;2023-03-31T04:21:42;11.60;99.90
22491;DHT22;11412;50.802;4.350;2023-03-31T04:24:10;11.80;99.90
22491;DHT22;11412;50.802;4.350;2023-03-31T04:26:37;11.70;99.90
22491;DHT22;11412;50.802;4.350;2023-03-31T04:29:13;11.70;99.90
22491;DHT22;11412;50.802;4.350;2023-03-31T04:31:39;11.90;99.90
22491;DHT22;11412;50.802;4.350;2023-03-31T04:34:13;12.00;99.90
22491;DHT22;11412;50.802;4.350;2023-03-31T04:36:44;12.20;99.90
22491;DHT22;11412;50.802;4.350;2023-03-31T04:39:14;12.10;99.90
22491;DHT22;11412;50.802;4.350;2023-03-31T04:41:40;11.90;99.90
22491;DHT22;11412;50.802;4.350;2023-03-31T04:44:05;12.10;99.90
22491;DHT22;11412;50.802;4.350;2023-03-31T04:46:32;12.00;99.90
22491;DHT22;11412;50.802;4.350;2023-03-31T04:48:58;12.10;99.90
22491;DHT22;11412;50.802;4.350;2023-03-31T04:51:26;12.20;99.90
22491;DHT22;11412;50.802;4.350;2023-03-31T04:53:51;12.10;99.90
22491;DHT22;11412;50.802;4.350;2023-03-31T04:56:17;12.10;99.90
22491;DHT22;11412;50.802;4.350;2023-03-31T04:58:43;12.00;99.90
22491;DHT22;11412;50.802;4.350;2023-03-31T05:01:09;11.90;99.90
22491;DHT22;11412;50.802;4.350;2023-03-31T05:03:38;11.80;99.90
22491;DHT22;11412;50.802;4.350;2023-03-31T05:06:04;12.00;99.90
22491;DHT22;11412;50.802;4.350;2023-03-31T05:08:29;12.10;99.90
22491;DHT22;11412;50.802;4.350;2023-03-31T05:10:55;12.10;99.90
22491;DHT22;11412;50.802;4.350;2023-03-31T05:13:22;12.00;99.90
22491;DHT22;11412;50.802;4.350;2023-03-31T05:15:48;12.00;99.90
22491;DHT22;11412;50.802;4.350;2023-03-31T05:18:16;12.00;99.90
22491;DHT22;11412;50.802;4.350;2023-03-31T05:20:42;12.00;99.90
22491;DHT22;11412;50.802;4.350;2023-03-31T05:23:07;12.10;99.90
22491;DHT22;11412;50.802;4.350;2023-03-31T05:25:33;12.10;99.90
22491;DHT22;11412;50.802;4.350;2023-03-31T05:28:00;12.10;99.90
22491;DHT22;11412;50.802;4.350;2023-03-31T05:30:26;12.00;99.90
22491;DHT22;11412;50.802;4.350;2023-03-31T05:32:52;12.10;99.90
22491;DHT22;11412;50.802;4.350;2023-03-31T05:35:18;12.10;99.90
22491;DHT22;11412;50.802;4.350;2023-03-31T05:37:44;12.20;99.90
22491;DHT22;11412;50.802;4.350;2023-03-31T05:40:09;12.10;99.90
22491;DHT22;11412;50.802;4.350;2023-03-31T05:42:36;12.10;99.90
22491;DHT22;11412;50.802;4.350;2023-03-31T05:45:07;12.10;99.90
22491;DHT22;11412;50.802;4.350;2023-03-31T05:47:36;12.00;99.90
22491;DHT22;11412;50.802;4.350;2023-03-31T05:50:02;12.10;99.90
22491;DHT22;11412;50.802;4.350;2023-03-31T05:52:32;12.20;99.90
22491;DHT22;11412;50.802;4.350;2023-03-31T05:54:58;12.00;99.90
22491;DHT22;11412;50.802;4.350;2023-03-31T05:57:23;12.00;99.90
22491;DHT22;11412;50.802;4.350;2023-03-31T05:59:49;12.00;99.90
22491;DHT22;11412;50.802;4.350;2023-03-31T06:02:14;12.20;99.90
22491;DHT22;11412;50.802;4.350;2023-03-31T06:04:40;12.10;99.90
22491;DHT22;11412;50.802;4.350;2023-03-31T06:07:06;12.20;99.90
22491;DHT22;11412;50.802;4.350;2023-03-31T06:09:32;12.20;99.90
22491;DHT22;11412;50.802;4.350;2023-03-31T06:11:58;12.20;99.90
22491;DHT22;11412;50.802;4.350;2023-03-31T06:14:24;12.20;99.90
22491;DHT22;11412;50.802;4.350;2023-03-31T06:16:51;12.00;99.90
22491;DHT22;11412;50.802;4.350;2023-03-31T06:19:17;12.00;99.90
22491;DHT22;11412;50.802;4.350;2023-03-31T06:21:42;12.20;99.90
22491;DHT22;11412;50.802;4.350;2023-03-31T06:24:08;12.10;99.90
22491;DHT22;11412;50.802;4.350;2023-03-31T06:26:34;12.20;99.90
22491;DHT22;11412;50.802;4.350;2023-03-31T06:29:00;12.30;99.90
22491;DHT22;11412;50.802;4.350;2023-03-31T06:31:26;12.20;99.90
22491;DHT22;11412;50.802;4.350;2023-03-31T06:33:52;12.30;99.90
22491;DHT22;11412;50.802;4.350;2023-03-31T06:36:19;12.30;99.90
22491;DHT22;11412;50.802;4.350;2023-03-31T06:38:46;12.50;99.90
22491;DHT22;11412;50.802;4.350;2023-03-31T06:41:13;12.50;99.90
22491;DHT22;11412;50.802;4.350;2023-03-31T06:43:39;12.50;99.90
22491;DHT22;11412;50.802;4.350;2023-03-31T06:46:05;12.50;99.90
22491;DHT22;11412;50.802;4.350;2023-03-31T06:48:32;12.40;99.90
22491;DHT22;11412;50.802;4.350;2023-03-31T06:51:03;12.60;99.90
22491;DHT22;11412;50.802;4.350;2023-03-31T06:53:29;12.60;99.90
22491;DHT22;11412;50.802;4.350;2023-03-31T06:55:55;12.80;99.90
22491;DHT22;11412;50.802;4.350;2023-03-31T06:58:21;12.90;99.90
22491;DHT22;11412;50.802;4.350;2023-03-31T07:00:47;12.70;99.90
22491;DHT22;11412;50.802;4.350;2023-03-31T07:03:13;12.70;99.90
22491;DHT22;11412;50.802;4.350;2023-03-31T07:05:39;12.70;99.90
22491;DHT22;11412;50.802;4.350;2023-03-31T07:08:05;12.80;99.90
22491;DHT22;11412;50.802;4.350;2023-03-31T07:10:31;12.80;99.90
22491;DHT22;11412;50.802;4.350;2023-03-31T07:12:57;12.80;99.90
22491;DHT22;11412;50.802;4.350;2023-03-31T07:15:23;12.80;99.90
22491;DHT22;11412;50.802;4.350;2023-03-31T07:17:49;12.70;99.90
22491;DHT22;11412;50.802;4.350;2023-03-31T07:20:18;12.70;99.90
22491;DHT22;11412;50.802;4.350;2023-03-31T07:22:46;12.60;99.90
22491;DHT22;11412;50.802;4.350;2023-03-31T07:25:14;12.60;99.90
22491;DHT22;11412;50.802;4.350;2023-03-31T07:27:40;12.60;99.90
22491;DHT22;11412;50.802;4.350;2023-03-31T07:30:08;12.60;99.90
22491;DHT22;11412;50.802;4.350;2023-03-31T07:32:35;12.80;99.90
22491;DHT22;11412;50.802;4.350;2023-03-31T07:35:09;12.80;99.90
22491;DHT22;11412;50.802;4.350;2023-03-31T07:37:36;12.70;99.90
22491;DHT22;11412;50.802;4.350;2023-03-31T07:40:03;12.70;99.90
22491;DHT22;11412;50.802;4.350;2023-03-31T07:42:31;12.60;99.90
22491;DHT22;11412;50.802;4.350;2023-03-31T07:44:57;12.60;99.90
22491;DHT22;11412;50.802;4.350;2023-03-31T07:47:23;12.50;99.90
22491;DHT22;11412;50.802;4.350;2023-03-31T07:49:49;12.50;99.90
22491;DHT22;11412;50.802;4.350;2023-03-31T07:52:15;12.50;99.90
22491;DHT22;11412;50.802;4.350;2023-03-31T07:54:41;12.40;99.90
22491;DHT22;11412;50.802;4.350;2023-03-31T07:57:07;12.30;99.90
22491;DHT22;11412;50.802;4.350;2023-03-31T07:59:33;12.50;99.90
22491;DHT22;11412;50.802;4.350;2023-03-31T08:01:59;12.50;99.90
22491;DHT22;11412;50.802;4.350;2023-03-31T08:04:25;12.60;99.90
22491;DHT22;11412;50.802;4.350;2023-03-31T08:06:51;12.60;99.90
22491;DHT22;11412;50.802;4.350;2023-03-31T08:09:17;12.70;99.90
22491;DHT22;11412;50.802;4.350;2023-03-31T08:11:44;12.60;99.90
22491;DHT22;11412;50.802;4.350;2023-03-31T08:14:10;12.50;99.90
22491;DHT22;11412;50.802;4.350;2023-03-31T08:16:35;12.70;99.90
22491;DHT22;11412;50.802;4.350;2023-03-31T08:19:01;12.70;99.90
22491;DHT22;11412;50.802;4.350;2023-03-31T08:21:28;12.60;99.90
22491;DHT22;11412;50.802;4.350;2023-03-31T08:23:54;12.70;99.90
22491;DHT22;11412;50.802;4.350;2023-03-31T08:26:21;12.60;99.90
22491;DHT22;11412;50.802;4.350;2023-03-31T08:28:49;12.70;99.90
22491;DHT22;11412;50.802;4.350;2023-03-31T08:31:15;12.70;99.90
22491;DHT22;11412;50.802;4.350;2023-03-31T08:33:41;12.60;99.90
22491;DHT22;11412;50.802;4.350;2023-03-31T08:36:08;12.60;99.90
22491;DHT22;11412;50.802;4.350;2023-03-31T08:38:39;12.60;99.90
22491;DHT22;11412;50.802;4.350;2023-03-31T08:41:44;12.60;99.90
22491;DHT22;11412;50.802;4.350;2023-03-31T08:44:34;12.60;99.90
22491;DHT22;11412;50.802;4.350;2023-03-31T08:47:02;12.60;99.90
22491;DHT22;11412;50.802;4.350;2023-03-31T08:49:40;12.60;99.90
22491;DHT22;11412;50.802;4.350;2023-03-31T08:52:13;12.80;99.90
22491;DHT22;11412;50.802;4.350;2023-03-31T08:54:48;12.70;99.90
22491;DHT22;11412;50.802;4.350;2023-03-31T08:57:22;12.70;99.90
22491;DHT22;11412;50.802;4.350;2023-03-31T08:59:49;12.70;99.90
22491;DHT22;11412;50.802;4.350;2023-03-31T09:02:45;12.80;99.90
22491;DHT22;11412;50.802;4.350;2023-03-31T09:05:19;12.70;99.90
22491;DHT22;11412;50.802;4.350;2023-03-31T09:16:14;12.60;99.90
22491;DHT22;11412;50.802;4.350;2023-03-31T09:18:41;12.80;99.90
22491;DHT22;11412;50.802;4.350;2023-03-31T09:21:20;12.80;99.90
22491;DHT22;11412;50.802;4.350;2023-03-31T09:26:40;13.00;99.90
22491;DHT22;11412;50.802;4.350;2023-03-31T09:29:12;13.00;99.90
22491;DHT22;11412;50.802;4.350;2023-03-31T09:31:43;13.00;99.90
22491;DHT22;11412;50.802;4.350;2023-03-31T09:34:15;13.00;99.90
22491;DHT22;11412;50.802;4.350;2023-03-31T09:36:42;13.10;99.90
22491;DHT22;11412;50.802;4.350;2023-03-31T09:39:12;13.10;99.90
22491;DHT22;11412;50.802;4.350;2023-03-31T09:41:42;13.10;99.90
22491;DHT22;11412;50.802;4.350;2023-03-31T09:44:20;13.10;99.90
22491;DHT22;11412;50.802;4.350;2023-03-31T09:46:47;13.20;99.90
22491;DHT22;11412;50.802;4.350;2023-03-31T09:49:20;13.00;99.90
22491;DHT22;11412;50.802;4.350;2023-03-31T09:51:51;13.10;99.90
22491;DHT22;11412;50.802;4.350;2023-03-31T09:56:57;12.80;99.90
22491;DHT22;11412;50.802;4.350;2023-03-31T09:59:31;12.80;99.90
22491;DHT22;11412;50.802;4.350;2023-03-31T10:01:59;12.90;99.90
22491;DHT22;11412;50.802;4.350;2023-03-31T10:04:30;12.70;99.90
22491;DHT22;11412;50.802;4.350;2023-03-31T10:06:58;12.80;99.90
22491;DHT22;11412;50.802;4.350;2023-03-31T10:09:29;12.90;99.90
22491;DHT22;11412;50.802;4.350;2023-03-31T10:12:05;12.80;99.90
22491;DHT22;11412;50.802;4.350;2023-03-31T10:14:40;12.70;99.90
22491;DHT22;11412;50.802;4.350;2023-03-31T10:17:16;12.70;99.90
22491;DHT22;11412;50.802;4.350;2023-03-31T10:19:57;12.80;99.90
22491;DHT22;11412;50.802;4.350;2023-03-31T10:22:28;12.80;99.90
22491;DHT22;11412;50.802;4.350;2023-03-31T10:25:07;12.80;99.90
22491;DHT22;11412;50.802;4.350;2023-03-31T10:27:38;12.90;99.90
22491;DHT22;11412;50.802;4.350;2023-03-31T10:30:10;12.90;99.90
22491;DHT22;11412;50.802;4.350;2023-03-31T10:32:42;12.80;99.90
22491;DHT22;11412;50.802;4.350;2023-03-31T10:38:12;13.10;99.90
22491;DHT22;11412;50.802;4.350;2023-03-31T10:40:41;13.20;99.90
22491;DHT22;11412;50.802;4.350;2023-03-31T10:43:16;13.10;99.90
22491;DHT22;11412;50.802;4.350;2023-03-31T10:45:53;12.90;99.90
22491;DHT22;11412;50.802;4.350;2023-03-31T10:48:25;13.00;99.90
22491;DHT22;11412;50.802;4.350;2023-03-31T10:50:53;13.00;99.90
22491;DHT22;11412;50.802;4.350;2023-03-31T10:53:19;12.90;99.90
22491;DHT22;11412;50.802;4.350;2023-03-31T11:01:33;13.10;99.90
22491;DHT22;11412;50.802;4.350;2023-03-31T11:06:54;13.10;99.90
22491;DHT22;11412;50.802;4.350;2023-03-31T11:15:02;12.90;99.90
22491;DHT22;11412;50.802;4.350;2023-03-31T11:20:17;13.00;99.90
22491;DHT22;11412;50.802;4.350;2023-03-31T11:23:03;12.90;99.90
22491;DHT22;11412;50.802;4.350;2023-03-31T11:26:01;13.00;99.90
22491;DHT22;11412;50.802;4.350;2023-03-31T11:29:17;12.90;99.90
22491;DHT22;11412;50.802;4.350;2023-03-31T11:37:36;13.10;99.90
22491;DHT22;11412;50.802;4.350;2023-03-31T11:42:51;13.20;99.90
22491;DHT22;11412;50.802;4.350;2023-03-31T11:45:34;13.10;99.90
22491;DHT22;11412;50.802;4.350;2023-03-31T11:48:08;13.00;99.90
22491;DHT22;11412;50.802;4.350;2023-03-31T11:50:36;12.90;99.90
22491;DHT22;11412;50.802;4.350;2023-03-31T11:53:31;12.90;99.90
22491;DHT22;11412;50.802;4.350;2023-03-31T11:55:58;13.20;99.90
22491;DHT22;11412;50.802;4.350;2023-03-31T11:58:51;13.00;99.90
22491;DHT22;11412;50.802;4.350;2023-03-31T12:01:28;13.00;99.90
22491;DHT22;11412;50.802;4.350;2023-03-31T12:04:08;12.90;99.90
22491;DHT22;11412;50.802;4.350;2023-03-31T12:06:40;13.10;99.90
22491;DHT22;11412;50.802;4.350;2023-03-31T12:09:26;13.00;99.90
22491;DHT22;11412;50.802;4.350;2023-03-31T12:14:41;12.90;99.90
22491;DHT22;11412;50.802;4.350;2023-03-31T12:17:18;12.80;99.90
22491;DHT22;11412;50.802;4.350;2023-03-31T12:19:48;12.70;99.90
22491;DHT22;11412;50.802;4.350;2023-03-31T12:22:32;12.50;99.90
22491;DHT22;11412;50.802;4.350;2023-03-31T12:25:02;12.40;99.90
22491;DHT22;11412;50.802;4.350;2023-03-31T12:27:42;12.30;99.90
22491;DHT22;11412;50.802;4.350;2023-03-31T12:32:43;12.20;99.90
22491;DHT22;11412;50.802;4.350;2023-03-31T12:41:14;12.50;99.90
22491;DHT22;11412;50.802;4.350;2023-03-31T12:51:57;12.70;99.90
22491;DHT22;11412;50.802;4.350;2023-03-31T12:59:34;12.80;99.90
22491;DHT22;11412;50.802;4.350;2023-03-31T13:04:41;13.00;99.90
22491;DHT22;11412;50.802;4.350;2023-03-31T13:09:58;12.90;99.90
22491;DHT22;11412;50.802;4.350;2023-03-31T13:12:27;13.00;99.90
22491;DHT22;11412;50.802;4.350;2023-03-31T13:14:55;13.00;99.90
22491;DHT22;11412;50.802;4.350;2023-03-31T13:17:33;13.00;99.90
22491;DHT22;11412;50.802;4.350;2023-03-31T13:20:31;12.70;99.90
22491;DHT22;11412;50.802;4.350;2023-03-31T13:23:03;12.70;99.90
22491;DHT22;11412;50.802;4.350;2023-03-31T13:28:10;12.60;99.90
22491;DHT22;11412;50.802;4.350;2023-03-31T13:33:14;12.60;99.90
22491;DHT22;11412;50.802;4.350;2023-03-31T13:35:46;12.60;99.90
22491;DHT22;11412;50.802;4.350;2023-03-31T13:56:08;12.40;99.90
22491;DHT22;11412;50.802;4.350;2023-03-31T14:04:46;12.40;99.90
22491;DHT22;11412;50.802;4.350;2023-03-31T14:07:36;12.50;99.90
22491;DHT22;11412;50.802;4.350;2023-03-31T14:10:03;12.50;99.90
22491;DHT22;11412;50.802;4.350;2023-03-31T14:12:33;12.50;99.90
22491;DHT22;11412;50.802;4.350;2023-03-31T14:14:59;12.50;99.90
22491;DHT22;11412;50.802;4.350;2023-03-31T14:17:30;12.30;99.90
22491;DHT22;11412;50.802;4.350;2023-03-31T14:25:39;12.40;99.90
22491;DHT22;11412;50.802;4.350;2023-03-31T14:39:13;12.80;99.90
22491;DHT22;11412;50.802;4.350;2023-03-31T14:41:40;12.80;99.90
22491;DHT22;11412;50.802;4.350;2023-03-31T14:44:13;12.70;99.90
22491;DHT22;11412;50.802;4.350;2023-03-31T14:46:40;12.80;99.90
22491;DHT22;11412;50.802;4.350;2023-03-31T14:51:52;12.70;99.90
22491;DHT22;11412;50.802;4.350;2023-03-31T14:54:19;12.60;99.90
22491;DHT22;11412;50.802;4.350;2023-03-31T14:56:56;12.60;99.90
22491;DHT22;11412;50.802;4.350;2023-03-31T14:59:29;12.60;99.90
22491;DHT22;11412;50.802;4.350;2023-03-31T15:02:00;12.50;99.90
22491;DHT22;11412;50.802;4.350;2023-03-31T15:04:31;12.50;99.90
22491;DHT22;11412;50.802;4.350;2023-03-31T15:06:59;12.50;99.90
22491;DHT22;11412;50.802;4.350;2023-03-31T15:09:28;12.50;99.90
22491;DHT22;11412;50.802;4.350;2023-03-31T15:12:00;12.50;99.90
22491;DHT22;11412;50.802;4.350;2023-03-31T15:14:32;12.30;99.90
22491;DHT22;11412;50.802;4.350;2023-03-31T15:16:59;12.20;99.90
22491;DHT22;11412;50.802;4.350;2023-03-31T15:19:29;12.20;99.90
22491;DHT22;11412;50.802;4.350;2023-03-31T15:22:01;12.40;99.90
22491;DHT22;11412;50.802;4.350;2023-03-31T15:24:30;12.60;99.90
22491;DHT22;11412;50.802;4.350;2023-03-31T15:27:04;12.60;99.90
22491;DHT22;11412;50.802;4.350;2023-03-31T15:29:37;12.50;99.90
22491;DHT22;11412;50.802;4.350;2023-03-31T15:32:12;12.60;99.90
22491;DHT22;11412;50.802;4.350;2023-03-31T15:34:38;12.70;99.90
22491;DHT22;11412;50.802;4.350;2023-03-31T15:37:06;12.60;99.90
22491;DHT22;11412;50.802;4.350;2023-03-31T15:39:32;12.50;99.90
22491;DHT22;11412;50.802;4.350;2023-03-31T15:42:08;12.60;99.90
22491;DHT22;11412;50.802;4.350;2023-03-31T15:47:15;12.60;99.90
22491;DHT22;11412;50.802;4.350;2023-03-31T15:52:36;12.50;99.90
22491;DHT22;11412;50.802;4.350;2023-03-31T15:57:47;12.40;99.90
22491;DHT22;11412;50.802;4.350;2023-03-31T16:02:59;12.20;99.90
22491;DHT22;11412;50.802;4.350;2023-03-31T16:05:45;12.30;99.90
22491;DHT22;11412;50.802;4.350;2023-03-31T16:08:29;12.40;99.90
22491;DHT22;11412;50.802;4.350;2023-03-31T16:11:21;12.40;99.90
22491;DHT22;11412;50.802;4.350;2023-03-31T16:13:52;12.30;99.90
22491;DHT22;11412;50.802;4.350;2023-03-31T16:16:22;12.30;99.90
22491;DHT22;11412;50.802;4.350;2023-03-31T16:18:54;12.20;99.90
22491;DHT22;11412;50.802;4.350;2023-03-31T16:21:29;12.00;99.90
22491;DHT22;11412;50.802;4.350;2023-03-31T16:23:58;12.10;99.90
22491;DHT22;11412;50.802;4.350;2023-03-31T16:26:26;11.90;99.90
22491;DHT22;11412;50.802;4.350;2023-03-31T16:28:54;12.10;99.90
22491;DHT22;11412;50.802;4.350;2023-03-31T16:33:58;12.10;99.90
22491;DHT22;11412;50.802;4.350;2023-03-31T16:36:24;12.30;99.90
22491;DHT22;11412;50.802;4.350;2023-03-31T16:38:51;12.20;99.90
22491;DHT22;11412;50.802;4.350;2023-03-31T16:41:18;12.20;99.90
22491;DHT22;11412;50.802;4.350;2023-03-31T16:43:44;12.00;99.90
22491;DHT22;11412;50.802;4.350;2023-03-31T16:46:10;12.00;99.90
22491;DHT22;11412;50.802;4.350;2023-03-31T16:48:36;11.80;99.90
22491;DHT22;11412;50.802;4.350;2023-03-31T16:51:02;11.80;99.90
22491;DHT22;11412;50.802;4.350;2023-03-31T16:53:30;11.90;99.90
22491;DHT22;11412;50.802;4.350;2023-03-31T16:55:58;11.80;99.90
22491;DHT22;11412;50.802;4.350;2023-03-31T16:58:24;11.70;99.90
22491;DHT22;11412;50.802;4.350;2023-03-31T17:00:51;11.60;99.90
22491;DHT22;11412;50.802;4.350;2023-03-31T17:03:17;11.70;99.90
22491;DHT22;11412;50.802;4.350;2023-03-31T17:05:45;11.70;99.90
22491;DHT22;11412;50.802;4.350;2023-03-31T17:08:12;11.60;99.90
22491;DHT22;11412;50.802;4.350;2023-03-31T17:10:39;11.60;99.90
22491;DHT22;11412;50.802;4.350;2023-03-31T17:13:08;11.60;99.90
22491;DHT22;11412;50.802;4.350;2023-03-31T17:15:35;11.40;99.90
22491;DHT22;11412;50.802;4.350;2023-03-31T17:18:02;11.50;99.90
22491;DHT22;11412;50.802;4.350;2023-03-31T17:20:28;11.40;99.90
22491;DHT22;11412;50.802;4.350;2023-03-31T17:22:55;11.30;99.90
22491;DHT22;11412;50.802;4.350;2023-03-31T17:25:21;11.20;99.90
22491;DHT22;11412;50.802;4.350;2023-03-31T17:27:47;11.30;99.90
22491;DHT22;11412;50.802;4.350;2023-03-31T17:30:13;11.30;99.90
22491;DHT22;11412;50.802;4.350;2023-03-31T17:32:38;11.30;99.90
22491;DHT22;11412;50.802;4.350;2023-03-31T17:35:05;11.30;99.90
22491;DHT22;11412;50.802;4.350;2023-03-31T17:37:32;11.20;99.90
22491;DHT22;11412;50.802;4.350;2023-03-31T17:39:58;11.20;99.90
22491;DHT22;11412;50.802;4.350;2023-03-31T17:42:24;11.20;99.90
22491;DHT22;11412;50.802;4.350;2023-03-31T17:44:49;11.30;99.90
22491;DHT22;11412;50.802;4.350;2023-03-31T17:47:17;11.20;99.90
22491;DHT22;11412;50.802;4.350;2023-03-31T17:49:45;11.40;99.90
22491;DHT22;11412;50.802;4.350;2023-03-31T17:52:11;11.30;99.90
22491;DHT22;11412;50.802;4.350;2023-03-31T17:54:38;11.40;99.90
22491;DHT22;11412;50.802;4.350;2023-03-31T17:57:03;11.20;99.90
22491;DHT22;11412;50.802;4.350;2023-03-31T17:59:29;11.20;99.90
22491;DHT22;11412;50.802;4.350;2023-03-31T18:01:54;11.30;99.90
22491;DHT22;11412;50.802;4.350;2023-03-31T18:04:20;11.30;99.90
22491;DHT22;11412;50.802;4.350;2023-03-31T18:06:46;11.10;99.90
22491;DHT22;11412;50.802;4.350;2023-03-31T18:09:13;11.10;99.90
22491;DHT22;11412;50.802;4.350;2023-03-31T18:11:39;11.20;99.90
22491;DHT22;11412;50.802;4.350;2023-03-31T18:14:05;11.20;99.90
22491;DHT22;11412;50.802;4.350;2023-03-31T18:16:32;11.10;99.90
22491;DHT22;11412;50.802;4.350;2023-03-31T18:18:59;11.10;99.90
22491;DHT22;11412;50.802;4.350;2023-03-31T18:21:25;11.10;99.90
22491;DHT22;11412;50.802;4.350;2023-03-31T18:23:51;11.00;99.90
22491;DHT22;11412;50.802;4.350;2023-03-31T18:26:20;11.10;99.90
22491;DHT22;11412;50.802;4.350;2023-03-31T18:28:46;11.10;99.90
22491;DHT22;11412;50.802;4.350;2023-03-31T18:31:12;11.00;99.90
22491;DHT22;11412;50.802;4.350;2023-03-31T18:33:38;11.00;99.90
22491;DHT22;11412;50.802;4.350;2023-03-31T18:36:05;11.00;99.90
22491;DHT22;11412;50.802;4.350;2023-03-31T18:38:31;11.10;99.90
22491;DHT22;11412;50.802;4.350;2023-03-31T18:40:57;11.10;99.90
22491;DHT22;11412;50.802;4.350;2023-03-31T18:43:24;11.00;99.90
22491;DHT22;11412;50.802;4.350;2023-03-31T18:45:52;11.00;99.90